sensor_id;sensor_type;location;lat;lon;timestamp;P1;durP1;ratioP1;P2;durP2;ratioP2
6564;SDS011;3316;44.118;27.258;2023-03-01T00:01:09;22.10;;;13.63;;
6564;SDS011;3316;44.118;27.258;2023-03-01T00:03:36;23.77;;;13.70;;
6564;SDS011;3316;44.118;27.258;2023-03-01T00:06:02;25.47;;;14.90;;
6564;SDS011;3316;44.118;27.258;2023-03-01T00:08:29;26.53;;;14.63;;
6564;SDS011;3316;44.118;27.258;2023-03-01T00:11:05;26.67;;;14.83;;
6564;SDS011;3316;44.118;27.258;2023-03-01T00:13:33;27.70;;;15.87;;
6564;SDS011;3316;44.118;27.258;2023-03-01T00:16:01;31.33;;;19.17;;
6564;SDS011;3316;44.118;27.258;2023-03-01T00:18:31;25.83;;;16.53;;
6564;SDS011;3316;44.118;27.258;2023-03-01T00:20:57;27.17;;;16.23;;
6564;SDS011;3316;44.118;27.258;2023-03-01T00:23:22;23.20;;;15.30;;
6564;SDS011;3316;44.118;27.258;2023-03-01T00:25:48;29.77;;;17.43;;
6564;SDS011;3316;44.118;27.258;2023-03-01T00:28:14;26.60;;;16.43;;
6564;SDS011;3316;44.118;27.258;2023-03-01T00:30:40;28.00;;;16.77;;
6564;SDS011;3316;44.118;27.258;2023-03-01T00:33:05;27.43;;;17.73;;
6564;SDS011;3316;44.118;27.258;2023-03-01T00:35:31;26.33;;;16.60;;
6564;SDS011;3316;44.118;27.258;2023-03-01T00:37:57;26.53;;;16.50;;
6564;SDS011;3316;44.118;27.258;2023-03-01T00:40:23;30.37;;;18.13;;
6564;SDS011;3316;44.118;27.258;2023-03-01T00:42:49;28.57;;;16.23;;
6564;SDS011;3316;44.118;27.258;2023-03-01T00:45:15;30.30;;;17.70;;
6564;SDS011;3316;44.118;27.258;2023-03-01T00:47:41;30.07;;;18.73;;
6564;SDS011;3316;44.118;27.258;2023-03-01T00:50:06;32.80;;;19.13;;
6564;SDS011;3316;44.118;27.258;2023-03-01T00:52:33;31.77;;;17.70;;
6564;SDS011;3316;44.118;27.258;2023-03-01T00:54:58;29.43;;;17.70;;
6564;SDS011;3316;44.118;27.258;2023-03-01T00:57:24;33.20;;;19.50;;
6564;SDS011;3316;44.118;27.258;2023-03-01T00:59:49;31.93;;;19.73;;
6564;SDS011;3316;44.118;27.258;2023-03-01T01:02:15;35.00;;;18.97;;
6564;SDS011;3316;44.118;27.258;2023-03-01T01:04:40;29.47;;;18.50;;
6564;SDS011;3316;44.118;27.258;2023-03-01T01:07:06;34.73;;;19.70;;
6564;SDS011;3316;44.118;27.258;2023-03-01T01:09:31;35.10;;;21.10;;
6564;SDS011;3316;44.118;27.258;2023-03-01T01:11:57;32.03;;;18.67;;
6564;SDS011;3316;44.118;27.258;2023-03-01T01:14:22;31.70;;;18.40;;
6564;SDS011;3316;44.118;27.258;2023-03-01T01:16:48;35.23;;;19.30;;
6564;SDS011;3316;44.118;27.258;2023-03-01T01:19:14;30.27;;;18.70;;
6564;SDS011;3316;44.118;27.258;2023-03-01T01:21:39;30.17;;;17.27;;
6564;SDS011;3316;44.118;27.258;2023-03-01T01:24:08;29.00;;;18.37;;
6564;SDS011;3316;44.118;27.258;2023-03-01T01:26:33;35.37;;;21.93;;
6564;SDS011;3316;44.118;27.258;2023-03-01T01:29:00;33.77;;;20.63;;
6564;SDS011;3316;44.118;27.258;2023-03-01T01:31:27;30.53;;;19.53;;
6564;SDS011;3316;44.118;27.258;2023-03-01T01:33:54;34.97;;;21.03;;
6564;SDS011;3316;44.118;27.258;2023-03-01T01:36:20;32.77;;;19.23;;
6564;SDS011;3316;44.118;27.258;2023-03-01T01:38:46;55.33;;;31.70;;
6564;SDS011;3316;44.118;27.258;2023-03-01T01:41:13;30.70;;;18.90;;
6564;SDS011;3316;44.118;27.258;2023-03-01T01:43:40;44.10;;;25.67;;
6564;SDS011;3316;44.118;27.258;2023-03-01T01:48:55;39.73;;;23.03;;
6564;SDS011;3316;44.118;27.258;2023-03-01T01:51:28;40.10;;;23.40;;
6564;SDS011;3316;44.118;27.258;2023-03-01T01:54:03;34.50;;;20.07;;
6564;SDS011;3316;44.118;27.258;2023-03-01T01:56:36;36.30;;;22.47;;
6564;SDS011;3316;44.118;27.258;2023-03-01T01:59:05;36.20;;;21.53;;
6564;SDS011;3316;44.118;27.258;2023-03-01T02:01:31;40.20;;;25.40;;
6564;SDS011;3316;44.118;27.258;2023-03-01T02:03:56;47.23;;;27.73;;
6564;SDS011;3316;44.118;27.258;2023-03-01T02:06:34;41.77;;;24.90;;
6564;SDS011;3316;44.118;27.258;2023-03-01T02:09:13;38.17;;;22.97;;
6564;SDS011;3316;44.118;27.258;2023-03-01T02:11:40;34.60;;;20.63;;
6564;SDS011;3316;44.118;27.258;2023-03-01T02:14:07;56.97;;;31.77;;
6564;SDS011;3316;44.118;27.258;2023-03-01T02:16:32;45.27;;;27.63;;
6564;SDS011;3316;44.118;27.258;2023-03-01T02:18:58;45.17;;;27.40;;
6564;SDS011;3316;44.118;27.258;2023-03-01T02:24:21;37.17;;;20.50;;
6564;SDS011;3316;44.118;27.258;2023-03-01T02:27:09;33.03;;;20.73;;
6564;SDS011;3316;44.118;27.258;2023-03-01T02:29:34;35.50;;;21.63;;
6564;SDS011;3316;44.118;27.258;2023-03-01T02:32:00;34.73;;;20.87;;
6564;SDS011;3316;44.118;27.258;2023-03-01T02:34:28;37.57;;;21.20;;
6564;SDS011;3316;44.118;27.258;2023-03-01T02:36:58;36.27;;;21.07;;
6564;SDS011;3316;44.118;27.258;2023-03-01T02:39:42;36.53;;;21.00;;
6564;SDS011;3316;44.118;27.258;2023-03-01T02:42:13;35.73;;;21.67;;
6564;SDS011;3316;44.118;27.258;2023-03-01T02:44:42;36.13;;;21.93;;
6564;SDS011;3316;44.118;27.258;2023-03-01T02:47:07;47.50;;;26.50;;
6564;SDS011;3316;44.118;27.258;2023-03-01T02:49:34;37.67;;;23.23;;
6564;SDS011;3316;44.118;27.258;2023-03-01T02:57:00;35.97;;;22.23;;
6564;SDS011;3316;44.118;27.258;2023-03-01T02:59:29;42.27;;;24.23;;
6564;SDS011;3316;44.118;27.258;2023-03-01T03:02:00;39.63;;;22.80;;
6564;SDS011;3316;44.118;27.258;2023-03-01T03:04:26;50.50;;;29.33;;
6564;SDS011;3316;44.118;27.258;2023-03-01T03:06:51;48.83;;;27.90;;
6564;SDS011;3316;44.118;27.258;2023-03-01T03:09:17;38.97;;;21.37;;
6564;SDS011;3316;44.118;27.258;2023-03-01T03:11:43;51.17;;;27.80;;
6564;SDS011;3316;44.118;27.258;2023-03-01T03:14:10;62.73;;;36.10;;
6564;SDS011;3316;44.118;27.258;2023-03-01T03:16:44;47.57;;;28.37;;
6564;SDS011;3316;44.118;27.258;2023-03-01T03:19:11;52.33;;;30.27;;
6564;SDS011;3316;44.118;27.258;2023-03-01T03:21:37;55.87;;;33.57;;
6564;SDS011;3316;44.118;27.258;2023-03-01T03:24:03;48.57;;;29.40;;
6564;SDS011;3316;44.118;27.258;2023-03-01T03:26:29;47.67;;;26.73;;
6564;SDS011;3316;44.118;27.258;2023-03-01T03:28:55;58.00;;;33.17;;
6564;SDS011;3316;44.118;27.258;2023-03-01T03:31:21;54.10;;;31.63;;
6564;SDS011;3316;44.118;27.258;2023-03-01T03:33:46;43.17;;;25.47;;
6564;SDS011;3316;44.118;27.258;2023-03-01T03:36:19;51.70;;;29.60;;
6564;SDS011;3316;44.118;27.258;2023-03-01T03:38:46;48.00;;;27.10;;
6564;SDS011;3316;44.118;27.258;2023-03-01T03:41:11;44.23;;;25.40;;
6564;SDS011;3316;44.118;27.258;2023-03-01T03:43:38;48.63;;;28.37;;
6564;SDS011;3316;44.118;27.258;2023-03-01T03:46:05;51.53;;;26.43;;
6564;SDS011;3316;44.118;27.258;2023-03-01T03:48:33;41.57;;;24.23;;
6564;SDS011;3316;44.118;27.258;2023-03-01T03:50:59;41.13;;;24.27;;
6564;SDS011;3316;44.118;27.258;2023-03-01T03:53:25;48.20;;;26.83;;
6564;SDS011;3316;44.118;27.258;2023-03-01T03:55:53;39.63;;;23.67;;
6564;SDS011;3316;44.118;27.258;2023-03-01T03:58:19;37.50;;;22.60;;
6564;SDS011;3316;44.118;27.258;2023-03-01T04:00:48;42.67;;;24.37;;
6564;SDS011;3316;44.118;27.258;2023-03-01T04:03:16;39.50;;;22.47;;
6564;SDS011;3316;44.118;27.258;2023-03-01T04:05:43;44.57;;;23.50;;
6564;SDS011;3316;44.118;27.258;2023-03-01T04:08:09;47.60;;;28.10;;
6564;SDS011;3316;44.118;27.258;2023-03-01T04:10:44;39.80;;;23.83;;
6564;SDS011;3316;44.118;27.258;2023-03-01T04:13:12;57.47;;;32.63;;
6564;SDS011;3316;44.118;27.258;2023-03-01T04:15:39;39.37;;;24.17;;
6564;SDS011;3316;44.118;27.258;2023-03-01T04:18:05;47.00;;;27.33;;
6564;SDS011;3316;44.118;27.258;2023-03-01T04:20:33;44.87;;;24.53;;
6564;SDS011;3316;44.118;27.258;2023-03-01T04:23:07;42.07;;;24.63;;
6564;SDS011;3316;44.118;27.258;2023-03-01T04:25:42;43.30;;;24.37;;
6564;SDS011;3316;44.118;27.258;2023-03-01T04:28:10;44.07;;;25.00;;
6564;SDS011;3316;44.118;27.258;2023-03-01T04:30:36;43.70;;;25.30;;
6564;SDS011;3316;44.118;27.258;2023-03-01T04:33:04;44.63;;;25.83;;
6564;SDS011;3316;44.118;27.258;2023-03-01T04:35:31;43.47;;;23.97;;
6564;SDS011;3316;44.118;27.258;2023-03-01T04:37:57;47.20;;;26.80;;
6564;SDS011;3316;44.118;27.258;2023-03-01T04:40:23;41.70;;;26.13;;
6564;SDS011;3316;44.118;27.258;2023-03-01T04:42:48;43.87;;;24.83;;
6564;SDS011;3316;44.118;27.258;2023-03-01T04:45:14;43.27;;;26.17;;
6564;SDS011;3316;44.118;27.258;2023-03-01T04:47:40;42.43;;;24.60;;
6564;SDS011;3316;44.118;27.258;2023-03-01T04:50:07;42.80;;;24.43;;
6564;SDS011;3316;44.118;27.258;2023-03-01T04:52:34;39.87;;;23.97;;
6564;SDS011;3316;44.118;27.258;2023-03-01T04:55:00;45.10;;;26.47;;
6564;SDS011;3316;44.118;27.258;2023-03-01T04:57:26;46.97;;;26.93;;
6564;SDS011;3316;44.118;27.258;2023-03-01T04:59:51;42.03;;;25.43;;
6564;SDS011;3316;44.118;27.258;2023-03-01T05:02:16;38.77;;;22.90;;
6564;SDS011;3316;44.118;27.258;2023-03-01T05:04:42;46.60;;;25.53;;
6564;SDS011;3316;44.118;27.258;2023-03-01T05:07:07;44.87;;;25.17;;
6564;SDS011;3316;44.118;27.258;2023-03-01T05:09:33;41.83;;;24.53;;
6564;SDS011;3316;44.118;27.258;2023-03-01T05:11:58;41.30;;;25.50;;
6564;SDS011;3316;44.118;27.258;2023-03-01T05:14:24;49.37;;;26.93;;
6564;SDS011;3316;44.118;27.258;2023-03-01T05:16:49;47.53;;;27.00;;
6564;SDS011;3316;44.118;27.258;2023-03-01T05:19:14;43.33;;;23.67;;
6564;SDS011;3316;44.118;27.258;2023-03-01T05:21:41;52.13;;;27.97;;
6564;SDS011;3316;44.118;27.258;2023-03-01T05:24:26;54.33;;;28.43;;
6564;SDS011;3316;44.118;27.258;2023-03-01T05:26:51;43.73;;;25.70;;
6564;SDS011;3316;44.118;27.258;2023-03-01T05:29:18;47.40;;;26.30;;
6564;SDS011;3316;44.118;27.258;2023-03-01T05:31:50;49.43;;;26.97;;
6564;SDS011;3316;44.118;27.258;2023-03-01T05:34:23;45.37;;;25.23;;
6564;SDS011;3316;44.118;27.258;2023-03-01T05:36:50;48.37;;;24.03;;
6564;SDS011;3316;44.118;27.258;2023-03-01T05:39:18;48.90;;;25.60;;
6564;SDS011;3316;44.118;27.258;2023-03-01T05:41:46;48.37;;;26.33;;
6564;SDS011;3316;44.118;27.258;2023-03-01T05:44:11;102.37;;;43.00;;
6564;SDS011;3316;44.118;27.258;2023-03-01T05:46:37;101.40;;;44.10;;
6564;SDS011;3316;44.118;27.258;2023-03-01T05:49:02;92.77;;;43.90;;
6564;SDS011;3316;44.118;27.258;2023-03-01T05:51:29;89.57;;;40.10;;
6564;SDS011;3316;44.118;27.258;2023-03-01T05:53:54;60.67;;;31.53;;
6564;SDS011;3316;44.118;27.258;2023-03-01T05:56:20;63.37;;;36.87;;
6564;SDS011;3316;44.118;27.258;2023-03-01T05:58:47;64.67;;;36.70;;
6564;SDS011;3316;44.118;27.258;2023-03-01T06:01:14;61.97;;;34.67;;
6564;SDS011;3316;44.118;27.258;2023-03-01T06:03:40;52.40;;;30.03;;
6564;SDS011;3316;44.118;27.258;2023-03-01T06:06:05;77.07;;;42.57;;
6564;SDS011;3316;44.118;27.258;2023-03-01T06:08:31;45.20;;;25.07;;
6564;SDS011;3316;44.118;27.258;2023-03-01T06:10:56;50.33;;;29.03;;
6564;SDS011;3316;44.118;27.258;2023-03-01T06:13:22;41.30;;;23.83;;
6564;SDS011;3316;44.118;27.258;2023-03-01T06:15:48;49.00;;;26.03;;
6564;SDS011;3316;44.118;27.258;2023-03-01T06:18:14;41.97;;;23.13;;
6564;SDS011;3316;44.118;27.258;2023-03-01T06:20:39;36.67;;;20.77;;
6564;SDS011;3316;44.118;27.258;2023-03-01T06:23:05;46.13;;;24.70;;
6564;SDS011;3316;44.118;27.258;2023-03-01T06:25:30;71.40;;;38.00;;
6564;SDS011;3316;44.118;27.258;2023-03-01T06:27:55;60.77;;;34.83;;
6564;SDS011;3316;44.118;27.258;2023-03-01T06:30:22;78.77;;;40.40;;
6564;SDS011;3316;44.118;27.258;2023-03-01T06:32:48;54.67;;;27.73;;
6564;SDS011;3316;44.118;27.258;2023-03-01T06:35:15;64.47;;;27.90;;
6564;SDS011;3316;44.118;27.258;2023-03-01T06:37:44;51.63;;;26.67;;
6564;SDS011;3316;44.118;27.258;2023-03-01T06:40:11;56.63;;;30.60;;
6564;SDS011;3316;44.118;27.258;2023-03-01T06:42:39;44.13;;;23.90;;
6564;SDS011;3316;44.118;27.258;2023-03-01T06:45:07;62.07;;;30.57;;
6564;SDS011;3316;44.118;27.258;2023-03-01T06:47:33;41.07;;;23.47;;
6564;SDS011;3316;44.118;27.258;2023-03-01T06:49:59;41.63;;;25.10;;
6564;SDS011;3316;44.118;27.258;2023-03-01T06:52:25;47.37;;;26.87;;
6564;SDS011;3316;44.118;27.258;2023-03-01T06:54:51;41.57;;;24.00;;
6564;SDS011;3316;44.118;27.258;2023-03-01T06:57:16;47.03;;;25.30;;
6564;SDS011;3316;44.118;27.258;2023-03-01T06:59:42;42.50;;;22.50;;
6564;SDS011;3316;44.118;27.258;2023-03-01T07:02:09;44.67;;;24.33;;
6564;SDS011;3316;44.118;27.258;2023-03-01T07:04:36;34.30;;;20.67;;
6564;SDS011;3316;44.118;27.258;2023-03-01T07:07:02;48.03;;;24.10;;
6564;SDS011;3316;44.118;27.258;2023-03-01T07:09:27;38.17;;;22.27;;
6564;SDS011;3316;44.118;27.258;2023-03-01T07:11:52;39.30;;;23.93;;
6564;SDS011;3316;44.118;27.258;2023-03-01T07:14:18;53.00;;;27.97;;
6564;SDS011;3316;44.118;27.258;2023-03-01T07:16:44;37.03;;;23.10;;
6564;SDS011;3316;44.118;27.258;2023-03-01T07:19:10;38.80;;;21.33;;
6564;SDS011;3316;44.118;27.258;2023-03-01T07:21:36;37.70;;;20.80;;
6564;SDS011;3316;44.118;27.258;2023-03-01T07:24:04;32.40;;;18.63;;
6564;SDS011;3316;44.118;27.258;2023-03-01T07:26:31;33.13;;;18.37;;
6564;SDS011;3316;44.118;27.258;2023-03-01T07:28:58;33.30;;;19.27;;
6564;SDS011;3316;44.118;27.258;2023-03-01T07:31:24;36.73;;;21.87;;
6564;SDS011;3316;44.118;27.258;2023-03-01T07:33:52;32.73;;;18.50;;
6564;SDS011;3316;44.118;27.258;2023-03-01T07:36:18;33.43;;;21.27;;
6564;SDS011;3316;44.118;27.258;2023-03-01T07:38:43;37.17;;;20.63;;
6564;SDS011;3316;44.118;27.258;2023-03-01T07:41:09;32.37;;;19.90;;
6564;SDS011;3316;44.118;27.258;2023-03-01T07:43:34;39.17;;;23.03;;
6564;SDS011;3316;44.118;27.258;2023-03-01T07:46:00;28.47;;;17.00;;
6564;SDS011;3316;44.118;27.258;2023-03-01T07:48:27;33.70;;;18.40;;
6564;SDS011;3316;44.118;27.258;2023-03-01T07:50:53;39.37;;;21.27;;
6564;SDS011;3316;44.118;27.258;2023-03-01T07:53:18;37.60;;;22.50;;
6564;SDS011;3316;44.118;27.258;2023-03-01T07:55:43;41.57;;;23.87;;
6564;SDS011;3316;44.118;27.258;2023-03-01T07:58:09;41.17;;;22.90;;
6564;SDS011;3316;44.118;27.258;2023-03-01T08:00:35;35.30;;;21.73;;
6564;SDS011;3316;44.118;27.258;2023-03-01T08:03:00;37.87;;;22.17;;
6564;SDS011;3316;44.118;27.258;2023-03-01T08:05:27;37.73;;;20.77;;
6564;SDS011;3316;44.118;27.258;2023-03-01T08:07:53;40.10;;;24.07;;
6564;SDS011;3316;44.118;27.258;2023-03-01T08:10:19;37.20;;;21.57;;
6564;SDS011;3316;44.118;27.258;2023-03-01T08:12:44;38.97;;;21.30;;
6564;SDS011;3316;44.118;27.258;2023-03-01T08:15:10;36.40;;;21.17;;
6564;SDS011;3316;44.118;27.258;2023-03-01T08:17:36;38.37;;;22.83;;
6564;SDS011;3316;44.118;27.258;2023-03-01T08:20:01;45.53;;;24.23;;
6564;SDS011;3316;44.118;27.258;2023-03-01T08:22:29;37.67;;;23.83;;
6564;SDS011;3316;44.118;27.258;2023-03-01T08:24:54;35.33;;;21.37;;
6564;SDS011;3316;44.118;27.258;2023-03-01T08:27:20;35.87;;;22.10;;
6564;SDS011;3316;44.118;27.258;2023-03-01T08:29:46;40.47;;;24.33;;
6564;SDS011;3316;44.118;27.258;2023-03-01T08:32:12;38.50;;;22.03;;
6564;SDS011;3316;44.118;27.258;2023-03-01T08:34:37;39.33;;;23.00;;
6564;SDS011;3316;44.118;27.258;2023-03-01T08:37:03;33.53;;;21.10;;
6564;SDS011;3316;44.118;27.258;2023-03-01T08:39:28;31.17;;;18.50;;
6564;SDS011;3316;44.118;27.258;2023-03-01T08:41:54;36.33;;;23.57;;
6564;SDS011;3316;44.118;27.258;2023-03-01T08:44:19;30.63;;;18.27;;
6564;SDS011;3316;44.118;27.258;2023-03-01T08:46:46;36.47;;;22.33;;
6564;SDS011;3316;44.118;27.258;2023-03-01T08:49:15;33.10;;;19.63;;
6564;SDS011;3316;44.118;27.258;2023-03-01T08:51:42;32.47;;;19.57;;
6564;SDS011;3316;44.118;27.258;2023-03-01T08:54:14;28.43;;;17.03;;
6564;SDS011;3316;44.118;27.258;2023-03-01T08:56:44;37.43;;;19.00;;
6564;SDS011;3316;44.118;27.258;2023-03-01T08:59:10;29.93;;;18.47;;
6564;SDS011;3316;44.118;27.258;2023-03-01T09:01:37;38.90;;;22.10;;
6564;SDS011;3316;44.118;27.258;2023-03-01T09:04:03;36.57;;;22.37;;
6564;SDS011;3316;44.118;27.258;2023-03-01T09:06:32;25.40;;;16.87;;
6564;SDS011;3316;44.118;27.258;2023-03-01T09:08:59;32.07;;;18.47;;
6564;SDS011;3316;44.118;27.258;2023-03-01T09:11:25;28.07;;;17.77;;
6564;SDS011;3316;44.118;27.258;2023-03-01T09:13:51;33.00;;;20.60;;
6564;SDS011;3316;44.118;27.258;2023-03-01T09:16:17;32.37;;;18.53;;
6564;SDS011;3316;44.118;27.258;2023-03-01T09:18:44;29.90;;;17.73;;
6564;SDS011;3316;44.118;27.258;2023-03-01T09:21:11;37.50;;;22.60;;
6564;SDS011;3316;44.118;27.258;2023-03-01T09:23:40;36.13;;;20.90;;
6564;SDS011;3316;44.118;27.258;2023-03-01T09:26:10;37.17;;;23.77;;
6564;SDS011;3316;44.118;27.258;2023-03-01T09:28:44;34.20;;;20.63;;
6564;SDS011;3316;44.118;27.258;2023-03-01T09:31:10;27.90;;;16.87;;
6564;SDS011;3316;44.118;27.258;2023-03-01T09:33:40;28.03;;;17.53;;
6564;SDS011;3316;44.118;27.258;2023-03-01T09:36:07;41.20;;;22.13;;
6564;SDS011;3316;44.118;27.258;2023-03-01T09:38:36;33.47;;;21.03;;
6564;SDS011;3316;44.118;27.258;2023-03-01T09:41:01;25.93;;;15.10;;
6564;SDS011;3316;44.118;27.258;2023-03-01T09:45:53;35.60;;;22.23;;
6564;SDS011;3316;44.118;27.258;2023-03-01T09:48:25;39.67;;;21.47;;
6564;SDS011;3316;44.118;27.258;2023-03-01T09:50:55;28.67;;;16.53;;
6564;SDS011;3316;44.118;27.258;2023-03-01T09:53:22;34.87;;;19.37;;
6564;SDS011;3316;44.118;27.258;2023-03-01T09:56:05;30.73;;;18.47;;
6564;SDS011;3316;44.118;27.258;2023-03-01T09:59:04;31.77;;;18.10;;
6564;SDS011;3316;44.118;27.258;2023-03-01T10:01:35;27.70;;;17.33;;
6564;SDS011;3316;44.118;27.258;2023-03-01T10:06:58;30.83;;;18.73;;
6564;SDS011;3316;44.118;27.258;2023-03-01T10:09:38;30.77;;;18.20;;
6564;SDS011;3316;44.118;27.258;2023-03-01T10:12:18;52.97;;;26.93;;
6564;SDS011;3316;44.118;27.258;2023-03-01T10:17:42;44.60;;;24.73;;
6564;SDS011;3316;44.118;27.258;2023-03-01T10:20:26;36.27;;;19.70;;
6564;SDS011;3316;44.118;27.258;2023-03-01T10:22:58;33.57;;;17.80;;
6564;SDS011;3316;44.118;27.258;2023-03-01T10:28:29;26.23;;;16.30;;
6564;SDS011;3316;44.118;27.258;2023-03-01T10:31:02;24.30;;;15.93;;
6564;SDS011;3316;44.118;27.258;2023-03-01T10:33:32;30.73;;;18.77;;
6564;SDS011;3316;44.118;27.258;2023-03-01T10:36:02;31.20;;;16.80;;
6564;SDS011;3316;44.118;27.258;2023-03-01T10:38:30;28.83;;;18.10;;
6564;SDS011;3316;44.118;27.258;2023-03-01T10:40:57;29.10;;;17.93;;
6564;SDS011;3316;44.118;27.258;2023-03-01T10:43:26;29.53;;;16.67;;
6564;SDS011;3316;44.118;27.258;2023-03-01T10:46:19;25.50;;;16.47;;
6564;SDS011;3316;44.118;27.258;2023-03-01T10:48:46;30.03;;;17.77;;
6564;SDS011;3316;44.118;27.258;2023-03-01T10:51:31;37.60;;;17.97;;
6564;SDS011;3316;44.118;27.258;2023-03-01T10:53:57;26.10;;;16.43;;
6564;SDS011;3316;44.118;27.258;2023-03-01T10:56:22;28.57;;;16.30;;
6564;SDS011;3316;44.118;27.258;2023-03-01T10:58:57;30.40;;;17.33;;
6564;SDS011;3316;44.118;27.258;2023-03-01T11:01:26;25.17;;;16.77;;
6564;SDS011;3316;44.118;27.258;2023-03-01T11:06:36;27.30;;;16.07;;
6564;SDS011;3316;44.118;27.258;2023-03-01T11:11:40;39.53;;;18.37;;
6564;SDS011;3316;44.118;27.258;2023-03-01T11:14:15;31.47;;;16.03;;
6564;SDS011;3316;44.118;27.258;2023-03-01T11:16:45;32.57;;;17.27;;
6564;SDS011;3316;44.118;27.258;2023-03-01T11:19:15;32.40;;;18.43;;
6564;SDS011;3316;44.118;27.258;2023-03-01T11:21:44;29.53;;;17.37;;
6564;SDS011;3316;44.118;27.258;2023-03-01T11:24:18;31.80;;;17.60;;
6564;SDS011;3316;44.118;27.258;2023-03-01T11:26:46;33.43;;;18.43;;
6564;SDS011;3316;44.118;27.258;2023-03-01T11:32:20;31.60;;;18.63;;
6564;SDS011;3316;44.118;27.258;2023-03-01T11:35:32;36.67;;;18.93;;
6564;SDS011;3316;44.118;27.258;2023-03-01T11:40:48;32.10;;;19.10;;
6564;SDS011;3316;44.118;27.258;2023-03-01T11:43:39;34.57;;;19.93;;
6564;SDS011;3316;44.118;27.258;2023-03-01T11:54:18;33.70;;;20.70;;
6564;SDS011;3316;44.118;27.258;2023-03-01T11:56:52;38.43;;;20.60;;
6564;SDS011;3316;44.118;27.258;2023-03-01T12:10:28;42.07;;;22.43;;
6564;SDS011;3316;44.118;27.258;2023-03-01T12:13:13;39.07;;;20.67;;
6564;SDS011;3316;44.118;27.258;2023-03-01T12:16:03;38.63;;;20.50;;
6564;SDS011;3316;44.118;27.258;2023-03-01T12:18:44;40.80;;;21.73;;
6564;SDS011;3316;44.118;27.258;2023-03-01T12:21:30;40.37;;;21.47;;
6564;SDS011;3316;44.118;27.258;2023-03-01T12:29:22;38.90;;;20.30;;
6564;SDS011;3316;44.118;27.258;2023-03-01T12:35:11;40.83;;;21.03;;
6564;SDS011;3316;44.118;27.258;2023-03-01T12:51:35;34.93;;;19.27;;
6564;SDS011;3316;44.118;27.258;2023-03-01T12:54:25;40.27;;;21.10;;
6564;SDS011;3316;44.118;27.258;2023-03-01T12:57:03;36.93;;;19.37;;
6564;SDS011;3316;44.118;27.258;2023-03-01T13:02:47;35.20;;;19.70;;
6564;SDS011;3316;44.118;27.258;2023-03-01T13:05:29;32.60;;;17.77;;
6564;SDS011;3316;44.118;27.258;2023-03-01T13:13:11;33.40;;;19.33;;
6564;SDS011;3316;44.118;27.258;2023-03-01T13:15:47;37.23;;;20.40;;
6564;SDS011;3316;44.118;27.258;2023-03-01T13:31:55;37.80;;;20.73;;
6564;SDS011;3316;44.118;27.258;2023-03-01T13:34:42;40.80;;;20.23;;
6564;SDS011;3316;44.118;27.258;2023-03-01T13:37:10;36.70;;;21.70;;
6564;SDS011;3316;44.118;27.258;2023-03-01T13:39:44;35.77;;;19.60;;
6564;SDS011;3316;44.118;27.258;2023-03-01T13:48:08;33.20;;;18.67;;
6564;SDS011;3316;44.118;27.258;2023-03-01T13:50:50;34.70;;;18.90;;
6564;SDS011;3316;44.118;27.258;2023-03-01T13:53:20;40.33;;;19.80;;
6564;SDS011;3316;44.118;27.258;2023-03-01T13:55:56;41.77;;;20.77;;
6564;SDS011;3316;44.118;27.258;2023-03-01T13:58:26;52.40;;;27.67;;
6564;SDS011;3316;44.118;27.258;2023-03-01T14:00:57;39.17;;;19.40;;
6564;SDS011;3316;44.118;27.258;2023-03-01T14:03:32;38.23;;;19.67;;
6564;SDS011;3316;44.118;27.258;2023-03-01T14:06:06;31.20;;;18.90;;
6564;SDS011;3316;44.118;27.258;2023-03-01T14:08:33;33.53;;;19.23;;
6564;SDS011;3316;44.118;27.258;2023-03-01T14:14:00;34.60;;;18.30;;
6564;SDS011;3316;44.118;27.258;2023-03-01T14:21:45;33.97;;;20.67;;
6564;SDS011;3316;44.118;27.258;2023-03-01T14:24:17;34.80;;;20.77;;
6564;SDS011;3316;44.118;27.258;2023-03-01T14:26:46;33.20;;;19.53;;
6564;SDS011;3316;44.118;27.258;2023-03-01T14:29:27;31.20;;;18.00;;
6564;SDS011;3316;44.118;27.258;2023-03-01T14:32:17;35.90;;;22.00;;
6564;SDS011;3316;44.118;27.258;2023-03-01T14:34:46;32.67;;;18.57;;
6564;SDS011;3316;44.118;27.258;2023-03-01T14:37:29;26.43;;;16.17;;
6564;SDS011;3316;44.118;27.258;2023-03-01T14:39:59;41.63;;;23.93;;
6564;SDS011;3316;44.118;27.258;2023-03-01T14:42:28;41.90;;;23.67;;
6564;SDS011;3316;44.118;27.258;2023-03-01T14:45:00;36.93;;;20.03;;
6564;SDS011;3316;44.118;27.258;2023-03-01T14:47:29;41.40;;;22.60;;
6564;SDS011;3316;44.118;27.258;2023-03-01T14:50:00;31.70;;;16.73;;
6564;SDS011;3316;44.118;27.258;2023-03-01T14:53:03;34.47;;;18.53;;
6564;SDS011;3316;44.118;27.258;2023-03-01T14:58:12;29.97;;;17.93;;
6564;SDS011;3316;44.118;27.258;2023-03-01T15:00:43;33.33;;;20.00;;
6564;SDS011;3316;44.118;27.258;2023-03-01T15:03:17;30.87;;;16.90;;
6564;SDS011;3316;44.118;27.258;2023-03-01T15:05:49;30.73;;;16.87;;
6564;SDS011;3316;44.118;27.258;2023-03-01T15:08:20;28.73;;;16.87;;
6564;SDS011;3316;44.118;27.258;2023-03-01T15:13:41;32.93;;;19.17;;
6564;SDS011;3316;44.118;27.258;2023-03-01T15:16:16;39.87;;;21.57;;
6564;SDS011;3316;44.118;27.258;2023-03-01T15:18:46;34.53;;;19.93;;
6564;SDS011;3316;44.118;27.258;2023-03-01T15:21:21;37.53;;;21.83;;
6564;SDS011;3316;44.118;27.258;2023-03-01T15:23:57;38.80;;;21.57;;
6564;SDS011;3316;44.118;27.258;2023-03-01T15:26:28;35.90;;;21.13;;
6564;SDS011;3316;44.118;27.258;2023-03-01T15:29:04;32.13;;;18.77;;
6564;SDS011;3316;44.118;27.258;2023-03-01T15:31:41;26.50;;;16.43;;
6564;SDS011;3316;44.118;27.258;2023-03-01T15:34:20;33.77;;;17.60;;
6564;SDS011;3316;44.118;27.258;2023-03-01T15:36:48;33.30;;;18.30;;
6564;SDS011;3316;44.118;27.258;2023-03-01T15:45:06;25.03;;;15.23;;
6564;SDS011;3316;44.118;27.258;2023-03-01T15:47:36;29.87;;;16.27;;
6564;SDS011;3316;44.118;27.258;2023-03-01T15:50:05;30.50;;;17.20;;
6564;SDS011;3316;44.118;27.258;2023-03-01T15:52:41;30.73;;;17.60;;
6564;SDS011;3316;44.118;27.258;2023-03-01T15:55:20;27.93;;;15.90;;
6564;SDS011;3316;44.118;27.258;2023-03-01T15:57:48;28.00;;;16.87;;
6564;SDS011;3316;44.118;27.258;2023-03-01T16:00:15;34.67;;;17.33;;
6564;SDS011;3316;44.118;27.258;2023-03-01T16:02:42;34.27;;;17.87;;
6564;SDS011;3316;44.118;27.258;2023-03-01T16:05:18;31.90;;;18.47;;
6564;SDS011;3316;44.118;27.258;2023-03-01T16:07:45;36.40;;;19.33;;
6564;SDS011;3316;44.118;27.258;2023-03-01T16:10:10;30.40;;;16.97;;
6564;SDS011;3316;44.118;27.258;2023-03-01T16:12:35;28.87;;;17.87;;
6564;SDS011;3316;44.118;27.258;2023-03-01T16:15:01;30.40;;;17.43;;
6564;SDS011;3316;44.118;27.258;2023-03-01T16:17:27;32.70;;;16.77;;
6564;SDS011;3316;44.118;27.258;2023-03-01T16:19:53;28.00;;;15.80;;
6564;SDS011;3316;44.118;27.258;2023-03-01T16:22:18;24.53;;;14.07;;
6564;SDS011;3316;44.118;27.258;2023-03-01T16:24:49;29.40;;;16.00;;
6564;SDS011;3316;44.118;27.258;2023-03-01T16:27:15;24.47;;;15.57;;
6564;SDS011;3316;44.118;27.258;2023-03-01T16:29:40;25.33;;;15.47;;
6564;SDS011;3316;44.118;27.258;2023-03-01T16:32:06;23.30;;;13.80;;
6564;SDS011;3316;44.118;27.258;2023-03-01T16:34:31;19.83;;;12.63;;
6564;SDS011;3316;44.118;27.258;2023-03-01T16:36:56;21.73;;;12.77;;
6564;SDS011;3316;44.118;27.258;2023-03-01T16:39:22;23.03;;;13.80;;
6564;SDS011;3316;44.118;27.258;2023-03-01T16:41:47;23.07;;;13.77;;
6564;SDS011;3316;44.118;27.258;2023-03-01T16:44:13;25.63;;;14.57;;
6564;SDS011;3316;44.118;27.258;2023-03-01T16:46:39;25.23;;;13.00;;